sensor_id;sensor_type;location;lat;lon;timestamp;P1;durP1;ratioP1;P2;durP2;ratioP2
1412;SDS011;701;52.526;13.408;2022-10-17T00:01:33;14.55;;;6.80;;
1412;SDS011;701;52.526;13.408;2022-10-17T00:03:58;13.43;;;6.90;;
1412;SDS011;701;52.526;13.408;2022-10-17T00:06:24;14.40;;;6.60;;
1412;SDS011;701;52.526;13.408;2022-10-17T00:08:49;12.85;;;6.28;;
1412;SDS011;701;52.526;13.408;2022-10-17T00:11:16;13.53;;;6.00;;
1412;SDS011;701;52.526;13.408;2022-10-17T00:13:44;13.23;;;5.63;;
1412;SDS011;701;52.526;13.408;2022-10-17T00:16:11;11.32;;;5.57;;
1412;SDS011;701;52.526;13.408;2022-10-17T00:18:37;14.17;;;5.27;;
1412;SDS011;701;52.526;13.408;2022-10-17T00:21:03;11.27;;;5.20;;
1412;SDS011;701;52.526;13.408;2022-10-17T00:23:29;10.27;;;5.10;;
1412;SDS011;701;52.526;13.408;2022-10-17T00:26:02;14.57;;;5.20;;
1412;SDS011;701;52.526;13.408;2022-10-17T00:28:29;9.50;;;4.93;;
1412;SDS011;701;52.526;13.408;2022-10-17T00:30:56;12.37;;;4.60;;
1412;SDS011;701;52.526;13.408;2022-10-17T00:33:23;10.25;;;4.22;;
1412;SDS011;701;52.526;13.408;2022-10-17T00:35:49;10.40;;;4.53;;
1412;SDS011;701;52.526;13.408;2022-10-17T00:38:15;10.27;;;4.50;;
1412;SDS011;701;52.526;13.408;2022-10-17T00:40:40;9.73;;;4.50;;
1412;SDS011;701;52.526;13.408;2022-10-17T00:43:15;10.03;;;4.43;;
1412;SDS011;701;52.526;13.408;2022-10-17T00:45:42;12.13;;;4.57;;
1412;SDS011;701;52.526;13.408;2022-10-17T00:48:10;10.93;;;4.47;;
1412;SDS011;701;52.526;13.408;2022-10-17T00:50:37;9.00;;;4.05;;
1412;SDS011;701;52.526;13.408;2022-10-17T00:53:05;13.13;;;4.57;;
1412;SDS011;701;52.526;13.408;2022-10-17T00:55:34;9.57;;;4.00;;
1412;SDS011;701;52.526;13.408;2022-10-17T00:58:09;10.98;;;4.15;;
1412;SDS011;701;52.526;13.408;2022-10-17T01:00:35;8.77;;;4.55;;
1412;SDS011;701;52.526;13.408;2022-10-17T01:03:02;9.10;;;4.13;;
1412;SDS011;701;52.526;13.408;2022-10-17T01:05:28;7.83;;;4.03;;
1412;SDS011;701;52.526;13.408;2022-10-17T01:07:54;9.60;;;4.10;;
1412;SDS011;701;52.526;13.408;2022-10-17T01:10:20;9.70;;;4.53;;
1412;SDS011;701;52.526;13.408;2022-10-17T01:13:00;7.53;;;3.80;;
1412;SDS011;701;52.526;13.408;2022-10-17T01:15:35;8.80;;;4.00;;
1412;SDS011;701;52.526;13.408;2022-10-17T01:18:16;8.40;;;3.78;;
1412;SDS011;701;52.526;13.408;2022-10-17T01:24:38;9.88;;;3.88;;
1412;SDS011;701;52.526;13.408;2022-10-17T01:27:48;9.40;;;4.00;;
1412;SDS011;701;52.526;13.408;2022-10-17T01:30:54;7.60;;;3.67;;
1412;SDS011;701;52.526;13.408;2022-10-17T01:36:10;7.43;;;3.67;;
1412;SDS011;701;52.526;13.408;2022-10-17T01:38:48;7.70;;;4.15;;
1412;SDS011;701;52.526;13.408;2022-10-17T01:46:35;11.10;;;5.72;;
1412;SDS011;701;52.526;13.408;2022-10-17T01:49:03;9.68;;;4.10;;
1412;SDS011;701;52.526;13.408;2022-10-17T01:51:39;7.50;;;3.85;;
1412;SDS011;701;52.526;13.408;2022-10-17T01:54:14;7.87;;;3.73;;
1412;SDS011;701;52.526;13.408;2022-10-17T01:56:47;9.52;;;4.18;;
1412;SDS011;701;52.526;13.408;2022-10-17T01:59:17;6.75;;;3.22;;
1412;SDS011;701;52.526;13.408;2022-10-17T02:01:46;6.82;;;3.40;;
1412;SDS011;701;52.526;13.408;2022-10-17T02:04:14;8.13;;;4.00;;
1412;SDS011;701;52.526;13.408;2022-10-17T02:06:41;7.33;;;3.77;;
1412;SDS011;701;52.526;13.408;2022-10-17T02:09:17;8.10;;;3.90;;
1412;SDS011;701;52.526;13.408;2022-10-17T02:12:09;9.23;;;4.30;;
1412;SDS011;701;52.526;13.408;2022-10-17T02:14:40;10.88;;;3.85;;
1412;SDS011;701;52.526;13.408;2022-10-17T02:17:19;7.22;;;3.95;;
1412;SDS011;701;52.526;13.408;2022-10-17T02:20:02;9.43;;;4.23;;
1412;SDS011;701;52.526;13.408;2022-10-17T02:23:12;7.63;;;3.90;;
1412;SDS011;701;52.526;13.408;2022-10-17T02:25:47;7.90;;;4.05;;
1412;SDS011;701;52.526;13.408;2022-10-17T02:28:43;6.88;;;3.85;;
1412;SDS011;701;52.526;13.408;2022-10-17T02:31:17;8.50;;;4.13;;
1412;SDS011;701;52.526;13.408;2022-10-17T02:33:52;7.70;;;4.10;;
1412;SDS011;701;52.526;13.408;2022-10-17T02:36:24;9.15;;;4.30;;
1412;SDS011;701;52.526;13.408;2022-10-17T02:38:53;10.88;;;4.25;;
1412;SDS011;701;52.526;13.408;2022-10-17T02:41:19;8.95;;;4.68;;
1412;SDS011;701;52.526;13.408;2022-10-17T02:43:49;8.63;;;4.10;;
1412;SDS011;701;52.526;13.408;2022-10-17T02:46:18;9.10;;;4.37;;
1412;SDS011;701;52.526;13.408;2022-10-17T02:56:16;7.18;;;4.05;;
1412;SDS011;701;52.526;13.408;2022-10-17T02:58:45;6.53;;;3.58;;
1412;SDS011;701;52.526;13.408;2022-10-17T03:01:16;7.20;;;4.40;;
1412;SDS011;701;52.526;13.408;2022-10-17T03:03:43;7.93;;;4.18;;
1412;SDS011;701;52.526;13.408;2022-10-17T03:06:08;10.90;;;4.27;;
1412;SDS011;701;52.526;13.408;2022-10-17T03:08:34;7.93;;;4.10;;
1412;SDS011;701;52.526;13.408;2022-10-17T03:11:00;8.68;;;4.13;;
1412;SDS011;701;52.526;13.408;2022-10-17T03:13:28;8.40;;;3.67;;
1412;SDS011;701;52.526;13.408;2022-10-17T03:15:55;8.25;;;4.20;;
1412;SDS011;701;52.526;13.408;2022-10-17T03:18:21;8.45;;;4.25;;
1412;SDS011;701;52.526;13.408;2022-10-17T03:20:48;7.68;;;4.03;;
1412;SDS011;701;52.526;13.408;2022-10-17T03:23:15;7.78;;;4.00;;
1412;SDS011;701;52.526;13.408;2022-10-17T03:25:40;7.73;;;4.23;;
1412;SDS011;701;52.526;13.408;2022-10-17T03:28:06;9.25;;;4.57;;
1412;SDS011;701;52.526;13.408;2022-10-17T03:30:33;7.90;;;4.40;;
1412;SDS011;701;52.526;13.408;2022-10-17T03:32:59;11.45;;;4.75;;
1412;SDS011;701;52.526;13.408;2022-10-17T03:35:25;7.57;;;4.50;;
1412;SDS011;701;52.526;13.408;2022-10-17T03:37:53;7.57;;;4.28;;
1412;SDS011;701;52.526;13.408;2022-10-17T03:40:20;8.30;;;4.33;;
1412;SDS011;701;52.526;13.408;2022-10-17T03:42:46;9.15;;;4.60;;
1412;SDS011;701;52.526;13.408;2022-10-17T03:45:12;8.93;;;4.78;;
1412;SDS011;701;52.526;13.408;2022-10-17T03:47:38;9.03;;;4.37;;
1412;SDS011;701;52.526;13.408;2022-10-17T03:50:04;9.10;;;4.72;;
1412;SDS011;701;52.526;13.408;2022-10-17T03:52:33;9.23;;;4.60;;
1412;SDS011;701;52.526;13.408;2022-10-17T03:55:00;10.05;;;4.20;;
1412;SDS011;701;52.526;13.408;2022-10-17T03:57:25;9.03;;;4.73;;
1412;SDS011;701;52.526;13.408;2022-10-17T03:59:51;7.87;;;4.57;;
1412;SDS011;701;52.526;13.408;2022-10-17T04:02:18;7.50;;;4.77;;
1412;SDS011;701;52.526;13.408;2022-10-17T04:04:44;10.15;;;4.70;;
1412;SDS011;701;52.526;13.408;2022-10-17T04:07:10;8.33;;;4.90;;
1412;SDS011;701;52.526;13.408;2022-10-17T04:09:39;8.88;;;4.85;;
1412;SDS011;701;52.526;13.408;2022-10-17T04:12:09;10.35;;;5.85;;
1412;SDS011;701;52.526;13.408;2022-10-17T04:14:36;11.45;;;4.72;;
1412;SDS011;701;52.526;13.408;2022-10-17T04:17:02;9.93;;;4.80;;
1412;SDS011;701;52.526;13.408;2022-10-17T04:19:29;9.52;;;4.60;;
1412;SDS011;701;52.526;13.408;2022-10-17T04:21:55;8.00;;;4.78;;
1412;SDS011;701;52.526;13.408;2022-10-17T04:24:21;7.63;;;4.20;;
1412;SDS011;701;52.526;13.408;2022-10-17T04:26:56;9.13;;;4.57;;
1412;SDS011;701;52.526;13.408;2022-10-17T04:29:25;9.45;;;4.75;;
1412;SDS011;701;52.526;13.408;2022-10-17T04:31:55;9.55;;;4.28;;
1412;SDS011;701;52.526;13.408;2022-10-17T04:34:29;8.85;;;4.57;;
1412;SDS011;701;52.526;13.408;2022-10-17T04:36:55;10.07;;;4.73;;
1412;SDS011;701;52.526;13.408;2022-10-17T04:39:20;13.20;;;4.90;;
1412;SDS011;701;52.526;13.408;2022-10-17T04:41:46;8.80;;;4.70;;
1412;SDS011;701;52.526;13.408;2022-10-17T04:44:13;10.10;;;4.80;;
1412;SDS011;701;52.526;13.408;2022-10-17T04:46:44;9.88;;;4.63;;
1412;SDS011;701;52.526;13.408;2022-10-17T04:49:09;13.32;;;4.85;;
1412;SDS011;701;52.526;13.408;2022-10-17T04:51:37;8.80;;;4.83;;
1412;SDS011;701;52.526;13.408;2022-10-17T04:54:11;11.15;;;4.90;;
1412;SDS011;701;52.526;13.408;2022-10-17T04:56:39;9.45;;;5.03;;
1412;SDS011;701;52.526;13.408;2022-10-17T04:59:05;8.63;;;5.10;;
1412;SDS011;701;52.526;13.408;2022-10-17T05:01:32;9.50;;;4.90;;
1412;SDS011;701;52.526;13.408;2022-10-17T05:03:58;12.85;;;5.20;;
1412;SDS011;701;52.526;13.408;2022-10-17T05:06:24;10.02;;;4.80;;
1412;SDS011;701;52.526;13.408;2022-10-17T05:09:21;9.83;;;5.00;;
1412;SDS011;701;52.526;13.408;2022-10-17T05:11:47;9.75;;;5.07;;
1412;SDS011;701;52.526;13.408;2022-10-17T05:14:13;9.13;;;5.10;;
1412;SDS011;701;52.526;13.408;2022-10-17T05:16:39;10.27;;;5.10;;
1412;SDS011;701;52.526;13.408;2022-10-17T05:19:06;9.90;;;5.07;;
1412;SDS011;701;52.526;13.408;2022-10-17T05:21:37;8.87;;;5.20;;
1412;SDS011;701;52.526;13.408;2022-10-17T05:24:05;10.85;;;5.18;;
1412;SDS011;701;52.526;13.408;2022-10-17T05:26:31;9.68;;;4.80;;
1412;SDS011;701;52.526;13.408;2022-10-17T05:28:58;12.70;;;5.40;;
1412;SDS011;701;52.526;13.408;2022-10-17T05:31:26;9.00;;;5.28;;
1412;SDS011;701;52.526;13.408;2022-10-17T05:33:53;9.30;;;4.88;;
1412;SDS011;701;52.526;13.408;2022-10-17T05:36:19;10.23;;;5.22;;
1412;SDS011;701;52.526;13.408;2022-10-17T05:38:49;12.40;;;5.30;;
1412;SDS011;701;52.526;13.408;2022-10-17T05:41:16;11.07;;;5.43;;
1412;SDS011;701;52.526;13.408;2022-10-17T05:43:42;9.80;;;5.07;;
1412;SDS011;701;52.526;13.408;2022-10-17T05:46:09;10.68;;;5.00;;
1412;SDS011;701;52.526;13.408;2022-10-17T05:48:35;11.85;;;5.65;;
1412;SDS011;701;52.526;13.408;2022-10-17T05:51:01;8.97;;;5.27;;
1412;SDS011;701;52.526;13.408;2022-10-17T05:53:31;8.40;;;5.03;;
1412;SDS011;701;52.526;13.408;2022-10-17T05:56:02;9.48;;;5.22;;
1412;SDS011;701;52.526;13.408;2022-10-17T05:58:31;12.52;;;5.80;;
1412;SDS011;701;52.526;13.408;2022-10-17T06:01:02;12.68;;;5.35;;
1412;SDS011;701;52.526;13.408;2022-10-17T06:03:30;11.37;;;5.50;;
1412;SDS011;701;52.526;13.408;2022-10-17T06:06:07;17.05;;;6.18;;
1412;SDS011;701;52.526;13.408;2022-10-17T06:08:37;11.90;;;6.00;;
1412;SDS011;701;52.526;13.408;2022-10-17T06:11:04;14.27;;;7.55;;
1412;SDS011;701;52.526;13.408;2022-10-17T06:13:30;10.10;;;5.90;;
1412;SDS011;701;52.526;13.408;2022-10-17T06:15:59;12.53;;;5.90;;
1412;SDS011;701;52.526;13.408;2022-10-17T06:18:24;16.58;;;6.15;;
1412;SDS011;701;52.526;13.408;2022-10-17T06:20:51;12.40;;;5.90;;
1412;SDS011;701;52.526;13.408;2022-10-17T06:23:21;13.33;;;6.03;;
1412;SDS011;701;52.526;13.408;2022-10-17T06:25:56;12.40;;;5.85;;
1412;SDS011;701;52.526;13.408;2022-10-17T06:28:27;20.83;;;6.93;;
1412;SDS011;701;52.526;13.408;2022-10-17T06:30:53;14.13;;;6.95;;
1412;SDS011;701;52.526;13.408;2022-10-17T06:33:19;12.40;;;6.13;;
1412;SDS011;701;52.526;13.408;2022-10-17T06:35:52;13.63;;;6.28;;
1412;SDS011;701;52.526;13.408;2022-10-17T06:38:21;14.38;;;5.25;;
1412;SDS011;701;52.526;13.408;2022-10-17T06:40:50;12.98;;;6.25;;
1412;SDS011;701;52.526;13.408;2022-10-17T06:43:18;15.77;;;5.90;;
1412;SDS011;701;52.526;13.408;2022-10-17T06:46:17;10.98;;;6.15;;
1412;SDS011;701;52.526;13.408;2022-10-17T06:48:54;11.13;;;6.47;;
1412;SDS011;701;52.526;13.408;2022-10-17T06:51:40;15.05;;;6.85;;
1412;SDS011;701;52.526;13.408;2022-10-17T06:54:08;12.38;;;6.80;;
1412;SDS011;701;52.526;13.408;2022-10-17T06:56:49;15.77;;;6.43;;
1412;SDS011;701;52.526;13.408;2022-10-17T06:59:33;15.52;;;6.30;;
1412;SDS011;701;52.526;13.408;2022-10-17T07:02:05;17.63;;;6.30;;
1412;SDS011;701;52.526;13.408;2022-10-17T07:04:31;17.65;;;6.43;;
1412;SDS011;701;52.526;13.408;2022-10-17T07:06:57;17.97;;;6.57;;
1412;SDS011;701;52.526;13.408;2022-10-17T07:09:25;13.85;;;6.40;;
1412;SDS011;701;52.526;13.408;2022-10-17T07:11:51;13.00;;;6.13;;
1412;SDS011;701;52.526;13.408;2022-10-17T07:14:17;12.27;;;6.67;;
1412;SDS011;701;52.526;13.408;2022-10-17T07:16:44;17.20;;;6.25;;
1412;SDS011;701;52.526;13.408;2022-10-17T07:19:18;10.82;;;6.10;;
1412;SDS011;701;52.526;13.408;2022-10-17T07:21:44;10.63;;;5.37;;
1412;SDS011;701;52.526;13.408;2022-10-17T07:24:10;14.27;;;6.00;;
1412;SDS011;701;52.526;13.408;2022-10-17T07:26:37;15.95;;;5.60;;
1412;SDS011;701;52.526;13.408;2022-10-17T07:29:03;15.80;;;5.63;;
1412;SDS011;701;52.526;13.408;2022-10-17T07:31:37;13.85;;;5.60;;
1412;SDS011;701;52.526;13.408;2022-10-17T07:34:02;13.38;;;4.75;;
1412;SDS011;701;52.526;13.408;2022-10-17T07:36:28;13.50;;;4.70;;
1412;SDS011;701;52.526;13.408;2022-10-17T07:38:55;10.63;;;5.07;;
1412;SDS011;701;52.526;13.408;2022-10-17T07:41:21;11.02;;;5.43;;
1412;SDS011;701;52.526;13.408;2022-10-17T07:43:47;13.40;;;5.25;;
1412;SDS011;701;52.526;13.408;2022-10-17T07:46:16;10.87;;;4.57;;
1412;SDS011;701;52.526;13.408;2022-10-17T07:48:43;8.45;;;4.68;;
1412;SDS011;701;52.526;13.408;2022-10-17T07:51:09;9.73;;;4.78;;
1412;SDS011;701;52.526;13.408;2022-10-17T07:53:35;10.80;;;4.50;;
1412;SDS011;701;52.526;13.408;2022-10-17T07:56:05;8.98;;;4.40;;
1412;SDS011;701;52.526;13.408;2022-10-17T07:58:32;8.88;;;4.10;;
1412;SDS011;701;52.526;13.408;2022-10-17T08:01:02;11.57;;;4.30;;
1412;SDS011;701;52.526;13.408;2022-10-17T08:03:29;10.20;;;4.80;;
1412;SDS011;701;52.526;13.408;2022-10-17T08:05:56;11.15;;;3.80;;
1412;SDS011;701;52.526;13.408;2022-10-17T08:08:23;8.73;;;4.50;;
1412;SDS011;701;52.526;13.408;2022-10-17T08:10:48;11.03;;;4.67;;
1412;SDS011;701;52.526;13.408;2022-10-17T08:13:14;12.88;;;4.38;;
1412;SDS011;701;52.526;13.408;2022-10-17T08:15:40;15.63;;;4.87;;
1412;SDS011;701;52.526;13.408;2022-10-17T08:18:05;11.68;;;6.47;;
1412;SDS011;701;52.526;13.408;2022-10-17T08:20:31;16.27;;;7.03;;
1412;SDS011;701;52.526;13.408;2022-10-17T08:22:57;12.32;;;4.30;;
1412;SDS011;701;52.526;13.408;2022-10-17T08:25:23;11.27;;;4.97;;
1412;SDS011;701;52.526;13.408;2022-10-17T08:27:49;15.03;;;7.10;;
1412;SDS011;701;52.526;13.408;2022-10-17T08:30:15;10.93;;;4.43;;
1412;SDS011;701;52.526;13.408;2022-10-17T08:32:41;10.52;;;4.15;;
1412;SDS011;701;52.526;13.408;2022-10-17T08:35:07;9.73;;;4.00;;
1412;SDS011;701;52.526;13.408;2022-10-17T08:37:33;7.13;;;3.50;;
1412;SDS011;701;52.526;13.408;2022-10-17T08:39:59;7.82;;;3.63;;
1412;SDS011;701;52.526;13.408;2022-10-17T08:48:18;11.00;;;3.90;;
1412;SDS011;701;52.526;13.408;2022-10-17T08:50:48;13.68;;;4.18;;
1412;SDS011;701;52.526;13.408;2022-10-17T08:56:13;14.30;;;5.90;;
1412;SDS011;701;52.526;13.408;2022-10-17T08:58:59;9.40;;;3.63;;
1412;SDS011;701;52.526;13.408;2022-10-17T09:01:31;7.60;;;3.30;;
1412;SDS011;701;52.526;13.408;2022-10-17T09:06:56;10.82;;;3.95;;
1412;SDS011;701;52.526;13.408;2022-10-17T09:09:41;11.93;;;3.33;;
1412;SDS011;701;52.526;13.408;2022-10-17T09:12:15;9.70;;;3.33;;
1412;SDS011;701;52.526;13.408;2022-10-17T09:17:33;8.00;;;3.10;;
1412;SDS011;701;52.526;13.408;2022-10-17T09:22:40;8.40;;;3.00;;
1412;SDS011;701;52.526;13.408;2022-10-17T09:25:19;7.38;;;3.17;;
1412;SDS011;701;52.526;13.408;2022-10-17T09:27:50;7.22;;;3.30;;
1412;SDS011;701;52.526;13.408;2022-10-17T09:33:24;12.20;;;2.85;;
1412;SDS011;701;52.526;13.408;2022-10-17T09:35:53;8.60;;;3.30;;
1412;SDS011;701;52.526;13.408;2022-10-17T09:38:21;7.40;;;3.38;;
1412;SDS011;701;52.526;13.408;2022-10-17T09:40:53;11.30;;;3.88;;
1412;SDS011;701;52.526;13.408;2022-10-17T09:43:21;8.30;;;3.53;;
1412;SDS011;701;52.526;13.408;2022-10-17T09:46:35;9.40;;;3.90;;
1412;SDS011;701;52.526;13.408;2022-10-17T09:52:03;8.63;;;2.90;;
1412;SDS011;701;52.526;13.408;2022-10-17T09:54:52;10.63;;;4.47;;
1412;SDS011;701;52.526;13.408;2022-10-17T09:57:20;13.63;;;3.45;;
1412;SDS011;701;52.526;13.408;2022-10-17T09:59:47;6.32;;;2.80;;
1412;SDS011;701;52.526;13.408;2022-10-17T10:02:24;7.20;;;2.63;;
1412;SDS011;701;52.526;13.408;2022-10-17T10:04:55;11.65;;;2.80;;
1412;SDS011;701;52.526;13.408;2022-10-17T10:07:26;12.50;;;3.35;;
1412;SDS011;701;52.526;13.408;2022-10-17T10:09:54;8.85;;;3.20;;
1412;SDS011;701;52.526;13.408;2022-10-17T10:12:27;10.15;;;3.35;;
1412;SDS011;701;52.526;13.408;2022-10-17T10:14:58;10.63;;;5.40;;
1412;SDS011;701;52.526;13.408;2022-10-17T10:17:26;7.53;;;2.90;;
1412;SDS011;701;52.526;13.408;2022-10-17T10:23:14;10.20;;;3.45;;
1412;SDS011;701;52.526;13.408;2022-10-17T10:25:50;9.82;;;3.97;;
1412;SDS011;701;52.526;13.408;2022-10-17T10:28:18;5.53;;;2.80;;
1412;SDS011;701;52.526;13.408;2022-10-17T10:30:46;7.47;;;2.78;;
1412;SDS011;701;52.526;13.408;2022-10-17T10:33:14;6.65;;;2.80;;
1412;SDS011;701;52.526;13.408;2022-10-17T10:35:40;10.75;;;3.42;;
1412;SDS011;701;52.526;13.408;2022-10-17T10:38:09;9.47;;;2.70;;
1412;SDS011;701;52.526;13.408;2022-10-17T10:40:44;6.88;;;3.53;;
1412;SDS011;701;52.526;13.408;2022-10-17T10:46:17;9.38;;;4.10;;
1412;SDS011;701;52.526;13.408;2022-10-17T10:48:54;7.53;;;2.80;;
1412;SDS011;701;52.526;13.408;2022-10-17T10:51:31;10.70;;;3.85;;
1412;SDS011;701;52.526;13.408;2022-10-17T10:54:12;7.13;;;2.88;;
1412;SDS011;701;52.526;13.408;2022-10-17T10:56:51;7.78;;;2.83;;
1412;SDS011;701;52.526;13.408;2022-10-17T10:59:23;10.43;;;3.20;;
1412;SDS011;701;52.526;13.408;2022-10-17T11:04:34;8.18;;;3.03;;
1412;SDS011;701;52.526;13.408;2022-10-17T11:12:29;15.70;;;2.78;;
1412;SDS011;701;52.526;13.408;2022-10-17T11:15:00;7.27;;;3.20;;
1412;SDS011;701;52.526;13.408;2022-10-17T11:22:45;10.50;;;3.33;;
1412;SDS011;701;52.526;13.408;2022-10-17T11:27:40;5.87;;;2.73;;
1412;SDS011;701;52.526;13.408;2022-10-17T11:30:08;8.25;;;2.80;;
1412;SDS011;701;52.526;13.408;2022-10-17T11:32:39;6.63;;;2.50;;
1412;SDS011;701;52.526;13.408;2022-10-17T11:35:19;7.90;;;2.90;;
1412;SDS011;701;52.526;13.408;2022-10-17T11:40:39;13.18;;;6.10;;
1412;SDS011;701;52.526;13.408;2022-10-17T11:43:13;12.50;;;5.93;;
1412;SDS011;701;52.526;13.408;2022-10-17T11:45:47;14.55;;;6.15;;
1412;SDS011;701;52.526;13.408;2022-10-17T11:48:20;21.83;;;8.27;;
1412;SDS011;701;52.526;13.408;2022-10-17T11:51:02;12.32;;;4.65;;
1412;SDS011;701;52.526;13.408;2022-10-17T11:53:49;12.13;;;6.63;;
1412;SDS011;701;52.526;13.408;2022-10-17T11:56:19;11.95;;;4.70;;
1412;SDS011;701;52.526;13.408;2022-10-17T12:07:08;8.80;;;3.20;;
1412;SDS011;701;52.526;13.408;2022-10-17T12:12:32;8.90;;;3.38;;
1412;SDS011;701;52.526;13.408;2022-10-17T12:15:26;7.07;;;2.53;;
1412;SDS011;701;52.526;13.408;2022-10-17T12:17:45;8.40;;;2.95;;
1412;SDS011;701;52.526;13.408;2022-10-17T12:22:48;8.03;;;2.57;;
1412;SDS011;701;52.526;13.408;2022-10-17T12:25:18;7.13;;;3.13;;
1412;SDS011;701;52.526;13.408;2022-10-17T12:27:48;9.25;;;2.40;;
1412;SDS011;701;52.526;13.408;2022-10-17T12:32:52;7.15;;;2.85;;
1412;SDS011;701;52.526;13.408;2022-10-17T12:35:22;8.80;;;2.50;;
1412;SDS011;701;52.526;13.408;2022-10-17T12:42:59;8.37;;;2.70;;
1412;SDS011;701;52.526;13.408;2022-10-17T12:56:29;7.87;;;2.90;;
1412;SDS011;701;52.526;13.408;2022-10-17T12:59:16;6.03;;;2.70;;
1412;SDS011;701;52.526;13.408;2022-10-17T13:01:49;6.57;;;3.20;;
1412;SDS011;701;52.526;13.408;2022-10-17T13:04:17;14.30;;;3.40;;
1412;SDS011;701;52.526;13.408;2022-10-17T13:06:45;10.98;;;3.10;;
1412;SDS011;701;52.526;13.408;2022-10-17T13:11:47;9.98;;;3.30;;
1412;SDS011;701;52.526;13.408;2022-10-17T13:14:15;10.50;;;3.40;;
1412;SDS011;701;52.526;13.408;2022-10-17T13:16:51;6.85;;;3.10;;
1412;SDS011;701;52.526;13.408;2022-10-17T13:19:20;10.48;;;3.15;;
1412;SDS011;701;52.526;13.408;2022-10-17T13:21:51;7.07;;;3.23;;
1412;SDS011;701;52.526;13.408;2022-10-17T13:26:53;9.48;;;3.00;;
1412;SDS011;701;52.526;13.408;2022-10-17T13:29:19;7.53;;;2.70;;
1412;SDS011;701;52.526;13.408;2022-10-17T13:31:50;8.27;;;2.70;;
1412;SDS011;701;52.526;13.408;2022-10-17T13:34:19;11.25;;;2.85;;
1412;SDS011;701;52.526;13.408;2022-10-17T13:36:48;14.55;;;3.50;;
1412;SDS011;701;52.526;13.408;2022-10-17T13:39:18;7.63;;;2.72;;
1412;SDS011;701;52.526;13.408;2022-10-17T13:41:46;6.30;;;2.77;;
1412;SDS011;701;52.526;13.408;2022-10-17T13:44:13;7.47;;;2.72;;
1412;SDS011;701;52.526;13.408;2022-10-17T13:46:47;6.00;;;2.50;;
1412;SDS011;701;52.526;13.408;2022-10-17T13:49:21;9.88;;;2.85;;
1412;SDS011;701;52.526;13.408;2022-10-17T13:51:56;14.67;;;3.30;;
1412;SDS011;701;52.526;13.408;2022-10-17T13:54:34;8.80;;;2.97;;
1412;SDS011;701;52.526;13.408;2022-10-17T13:57:03;13.45;;;3.97;;
1412;SDS011;701;52.526;13.408;2022-10-17T13:59:39;6.65;;;2.75;;
1412;SDS011;701;52.526;13.408;2022-10-17T14:02:16;6.55;;;3.08;;
1412;SDS011;701;52.526;13.408;2022-10-17T14:04:58;10.03;;;2.80;;
1412;SDS011;701;52.526;13.408;2022-10-17T14:07:54;7.95;;;2.70;;
1412;SDS011;701;52.526;13.408;2022-10-17T14:12:50;9.98;;;2.90;;
1412;SDS011;701;52.526;13.408;2022-10-17T14:15:17;10.40;;;3.33;;
1412;SDS011;701;52.526;13.408;2022-10-17T14:17:52;7.90;;;2.90;;
1412;SDS011;701;52.526;13.408;2022-10-17T14:20:20;7.68;;;2.88;;
1412;SDS011;701;52.526;13.408;2022-10-17T14:22:47;9.05;;;2.80;;
1412;SDS011;701;52.526;13.408;2022-10-17T14:28:02;11.25;;;2.50;;
1412;SDS011;701;52.526;13.408;2022-10-17T14:30:38;8.60;;;2.40;;
1412;SDS011;701;52.526;13.408;2022-10-17T14:33:06;11.25;;;2.90;;
1412;SDS011;701;52.526;13.408;2022-10-17T14:35:37;7.10;;;2.70;;
1412;SDS011;701;52.526;13.408;2022-10-17T14:38:04;5.87;;;2.20;;
1412;SDS011;701;52.526;13.408;2022-10-17T14:40:31;6.00;;;2.75;;
1412;SDS011;701;52.526;13.408;2022-10-17T14:42:59;6.78;;;2.47;;
1412;SDS011;701;52.526;13.408;2022-10-17T14:45:31;7.20;;;2.55;;
1412;SDS011;701;52.526;13.408;2022-10-17T14:48:03;9.60;;;2.40;;
1412;SDS011;701;52.526;13.408;2022-10-17T14:50:40;12.50;;;3.27;;
1412;SDS011;701;52.526;13.408;2022-10-17T14:55:37;10.18;;;3.63;;
1412;SDS011;701;52.526;13.408;2022-10-17T14:58:14;10.95;;;3.38;;
1412;SDS011;701;52.526;13.408;2022-10-17T15:00:48;10.40;;;3.20;;
1412;SDS011;701;52.526;13.408;2022-10-17T15:03:13;7.80;;;2.90;;
1412;SDS011;701;52.526;13.408;2022-10-17T15:05:39;7.13;;;3.10;;
1412;SDS011;701;52.526;13.408;2022-10-17T15:08:11;10.73;;;3.10;;
1412;SDS011;701;52.526;13.408;2022-10-17T15:10:42;14.48;;;3.05;;
1412;SDS011;701;52.526;13.408;2022-10-17T15:13:10;9.27;;;3.10;;
1412;SDS011;701;52.526;13.408;2022-10-17T15:15:37;9.73;;;3.40;;
1412;SDS011;701;52.526;13.408;2022-10-17T15:18:04;9.83;;;3.53;;
1412;SDS011;701;52.526;13.408;2022-10-17T15:20:30;13.52;;;3.35;;
1412;SDS011;701;52.526;13.408;2022-10-17T15:22:58;8.82;;;4.18;;
1412;SDS011;701;52.526;13.408;2022-10-17T15:25:25;14.20;;;4.13;;
1412;SDS011;701;52.526;13.408;2022-10-17T15:27:52;14.23;;;4.75;;
1412;SDS011;701;52.526;13.408;2022-10-17T15:30:26;13.70;;;8.00;;
1412;SDS011;701;52.526;13.408;2022-10-17T15:32:53;11.48;;;4.85;;
1412;SDS011;701;52.526;13.408;2022-10-17T15:35:19;19.27;;;9.25;;
1412;SDS011;701;52.526;13.408;2022-10-17T15:37:45;16.27;;;7.45;;
1412;SDS011;701;52.526;13.408;2022-10-17T15:40:21;17.37;;;9.17;;
1412;SDS011;701;52.526;13.408;2022-10-17T15:42:47;14.57;;;7.22;;
1412;SDS011;701;52.526;13.408;2022-10-17T15:45:13;9.38;;;4.13;;
1412;SDS011;701;52.526;13.408;2022-10-17T15:47:42;10.77;;;4.22;;
1412;SDS011;701;52.526;13.408;2022-10-17T15:50:13;13.97;;;4.40;;
1412;SDS011;701;52.526;13.408;2022-10-17T15:52:40;12.70;;;4.50;;
1412;SDS011;701;52.526;13.408;2022-10-17T15:55:07;12.43;;;5.30;;
1412;SDS011;701;52.526;13.408;2022-10-17T15:57:35;9.13;;;3.42;;
1412;SDS011;701;52.526;13.408;2022-10-17T16:00:03;7.97;;;3.67;;
1412;SDS011;701;52.526;13.408;2022-10-17T16:02:34;8.27;;;3.40;;
1412;SDS011;701;52.526;13.408;2022-10-17T16:05:00;8.97;;;3.97;;
1412;SDS011;701;52.526;13.408;2022-10-17T16:07:26;16.30;;;6.20;;
1412;SDS011;701;52.526;13.408;2022-10-17T16:09:51;15.82;;;4.50;;
1412;SDS011;701;52.526;13.408;2022-10-17T16:12:18;11.67;;;4.67;;
1412;SDS011;701;52.526;13.408;2022-10-17T16:14:47;8.93;;;4.47;;
1412;SDS011;701;52.526;13.408;2022-10-17T16:17:13;14.57;;;4.50;;
1412;SDS011;701;52.526;13.408;2022-10-17T16:19:40;14.27;;;4.78;;
1412;SDS011;701;52.526;13.408;2022-10-17T16:22:10;11.50;;;4.78;;
1412;SDS011;701;52.526;13.408;2022-10-17T16:24:47;10.05;;;5.13;;
1412;SDS011;701;52.526;13.408;2022-10-17T16:27:13;12.97;;;3.40;;
1412;SDS011;701;52.526;13.408;2022-10-17T16:29:39;9.50;;;3.63;;
1412;SDS011;701;52.526;13.408;2022-10-17T16:32:04;11.97;;;4.10;;
1412;SDS011;701;52.526;13.408;2022-10-17T16:34:30;9.47;;;4.30;;
1412;SDS011;701;52.526;13.408;2022-10-17T16:36:56;11.67;;;4.30;;
1412;SDS011;701;52.526;13.408;2022-10-17T16:39:22;13.82;;;3.92;;
1412;SDS011;701;52.526;13.408;2022-10-17T16:41:47;8.10;;;3.53;;
1412;SDS011;701;52.526;13.408;2022-10-17T16:44:13;8.98;;;3.55;;
1412;SDS011;701;52.526;13.408;2022-10-17T16:46:38;9.33;;;3.90;;
1412;SDS011;701;52.526;13.408;2022-10-17T16:49:04;11.18;;;2.97;;
1412;SDS011;701;52.526;13.408;2022-10-17T16:51:31;11.17;;;3.50;;
1412;SDS011;701;52.526;13.408;2022-10-17T16:54:00;10.93;;;3.50;;
1412;SDS011;701;52.526;13.408;2022-10-17T16:56:28;11.13;;;4.55;;
1412;SDS011;701;52.526;13.408;2022-10-17T16:58:55;10.13;;;3.55;;
1412;SDS011;701;52.526;13.408;2022-10-17T17:01:22;12.93;;;3.70;;
1412;SDS011;701;52.526;13.408;2022-10-17T17:03:49;15.18;;;5.15;;
1412;SDS011;701;52.526;13.408;2022-10-17T17:06:17;11.80;;;4.32;;
1412;SDS011;701;52.526;13.408;2022-10-17T17:08:44;9.77;;;3.78;;
1412;SDS011;701;52.526;13.408;2022-10-17T17:11:12;9.82;;;3.70;;
1412;SDS011;701;52.526;13.408;2022-10-17T17:13:40;12.67;;;4.30;;
1412;SDS011;701;52.526;13.408;2022-10-17T17:16:07;10.77;;;4.13;;
1412;SDS011;701;52.526;13.408;2022-10-17T17:18:35;11.32;;;4.97;;